sensor_id;sensor_type;location;lat;lon;timestamp;P1;durP1;ratioP1;P2;durP2;ratioP2
5965;SDS011;3009;43.224;27.976;2023-03-29T00:01:00;2.20;;;2.10;;
5965;SDS011;3009;43.224;27.976;2023-03-29T00:03:32;1.60;;;1.60;;
5965;SDS011;3009;43.224;27.976;2023-03-29T00:06:02;2.30;;;2.20;;
5965;SDS011;3009;43.224;27.976;2023-03-29T00:08:31;2.90;;;2.70;;
5965;SDS011;3009;43.224;27.976;2023-03-29T00:11:00;2.80;;;2.60;;
5965;SDS011;3009;43.224;27.976;2023-03-29T00:13:29;2.37;;;2.27;;
5965;SDS011;3009;43.224;27.976;2023-03-29T00:15:57;11.40;;;2.73;;
5965;SDS011;3009;43.224;27.976;2023-03-29T00:18:26;2.10;;;2.00;;
5965;SDS011;3009;43.224;27.976;2023-03-29T00:20:54;2.67;;;2.00;;
5965;SDS011;3009;43.224;27.976;2023-03-29T00:23:24;2.30;;;2.20;;
5965;SDS011;3009;43.224;27.976;2023-03-29T00:25:55;2.80;;;2.60;;
5965;SDS011;3009;43.224;27.976;2023-03-29T00:28:24;3.27;;;3.07;;
5965;SDS011;3009;43.224;27.976;2023-03-29T00:30:52;2.50;;;2.30;;
5965;SDS011;3009;43.224;27.976;2023-03-29T00:33:21;2.40;;;2.30;;
5965;SDS011;3009;43.224;27.976;2023-03-29T00:35:51;3.17;;;2.97;;
5965;SDS011;3009;43.224;27.976;2023-03-29T00:38:19;3.13;;;2.93;;
5965;SDS011;3009;43.224;27.976;2023-03-29T00:40:49;3.23;;;2.97;;
5965;SDS011;3009;43.224;27.976;2023-03-29T00:43:18;4.90;;;3.27;;
5965;SDS011;3009;43.224;27.976;2023-03-29T00:45:46;2.93;;;2.77;;
5965;SDS011;3009;43.224;27.976;2023-03-29T00:48:15;6.43;;;3.10;;
5965;SDS011;3009;43.224;27.976;2023-03-29T00:50:46;3.93;;;3.10;;
5965;SDS011;3009;43.224;27.976;2023-03-29T00:53:20;2.93;;;2.73;;
5965;SDS011;3009;43.224;27.976;2023-03-29T00:55:54;3.47;;;3.17;;
5965;SDS011;3009;43.224;27.976;2023-03-29T00:58:28;2.97;;;2.77;;
5965;SDS011;3009;43.224;27.976;2023-03-29T01:01:03;3.43;;;3.23;;
5965;SDS011;3009;43.224;27.976;2023-03-29T01:03:36;3.50;;;3.27;;
5965;SDS011;3009;43.224;27.976;2023-03-29T01:06:12;3.40;;;3.20;;
5965;SDS011;3009;43.224;27.976;2023-03-29T01:08:43;2.83;;;2.63;;
5965;SDS011;3009;43.224;27.976;2023-03-29T01:11:18;4.60;;;3.03;;
5965;SDS011;3009;43.224;27.976;2023-03-29T01:13:50;3.60;;;3.30;;
5965;SDS011;3009;43.224;27.976;2023-03-29T01:16:25;2.90;;;2.70;;
5965;SDS011;3009;43.224;27.976;2023-03-29T01:18:55;3.40;;;3.20;;
5965;SDS011;3009;43.224;27.976;2023-03-29T01:21:25;3.10;;;2.90;;
5965;SDS011;3009;43.224;27.976;2023-03-29T01:24:02;2.97;;;2.77;;
5965;SDS011;3009;43.224;27.976;2023-03-29T01:26:48;4.40;;;3.40;;
5965;SDS011;3009;43.224;27.976;2023-03-29T01:29:25;2.80;;;2.60;;
5965;SDS011;3009;43.224;27.976;2023-03-29T01:31:59;3.43;;;3.13;;
5965;SDS011;3009;43.224;27.976;2023-03-29T01:34:34;5.10;;;3.53;;
5965;SDS011;3009;43.224;27.976;2023-03-29T01:37:07;3.50;;;3.13;;
5965;SDS011;3009;43.224;27.976;2023-03-29T01:39:43;5.53;;;3.40;;
5965;SDS011;3009;43.224;27.976;2023-03-29T01:42:15;4.03;;;3.67;;
5965;SDS011;3009;43.224;27.976;2023-03-29T01:44:56;4.10;;;3.70;;
5965;SDS011;3009;43.224;27.976;2023-03-29T01:47:35;3.30;;;3.10;;
5965;SDS011;3009;43.224;27.976;2023-03-29T01:50:14;4.00;;;3.47;;
5965;SDS011;3009;43.224;27.976;2023-03-29T01:52:49;4.30;;;3.90;;
5965;SDS011;3009;43.224;27.976;2023-03-29T01:55:23;3.80;;;3.50;;
5965;SDS011;3009;43.224;27.976;2023-03-29T01:57:55;10.90;;;3.73;;
5965;SDS011;3009;43.224;27.976;2023-03-29T02:00:28;3.93;;;3.73;;
5965;SDS011;3009;43.224;27.976;2023-03-29T02:02:58;4.67;;;3.63;;
5965;SDS011;3009;43.224;27.976;2023-03-29T02:05:30;5.30;;;3.27;;
5965;SDS011;3009;43.224;27.976;2023-03-29T02:08:00;5.57;;;5.07;;
5965;SDS011;3009;43.224;27.976;2023-03-29T02:10:32;4.30;;;3.97;;
5965;SDS011;3009;43.224;27.976;2023-03-29T02:13:02;4.40;;;4.00;;
5965;SDS011;3009;43.224;27.976;2023-03-29T02:15:32;3.63;;;3.33;;
5965;SDS011;3009;43.224;27.976;2023-03-29T02:18:01;3.40;;;3.10;;
5965;SDS011;3009;43.224;27.976;2023-03-29T02:20:30;4.43;;;4.03;;
5965;SDS011;3009;43.224;27.976;2023-03-29T02:23:03;5.00;;;3.50;;
5965;SDS011;3009;43.224;27.976;2023-03-29T02:25:35;3.63;;;3.33;;
5965;SDS011;3009;43.224;27.976;2023-03-29T02:28:04;4.80;;;3.57;;
5965;SDS011;3009;43.224;27.976;2023-03-29T02:30:37;4.47;;;4.00;;
5965;SDS011;3009;43.224;27.976;2023-03-29T02:33:09;3.43;;;3.13;;
5965;SDS011;3009;43.224;27.976;2023-03-29T02:35:43;3.50;;;3.30;;
5965;SDS011;3009;43.224;27.976;2023-03-29T02:38:18;4.20;;;3.90;;
5965;SDS011;3009;43.224;27.976;2023-03-29T02:40:51;7.07;;;4.03;;
5965;SDS011;3009;43.224;27.976;2023-03-29T02:43:19;4.70;;;3.37;;
5965;SDS011;3009;43.224;27.976;2023-03-29T02:45:53;3.50;;;3.30;;
5965;SDS011;3009;43.224;27.976;2023-03-29T02:48:22;4.87;;;4.40;;
5965;SDS011;3009;43.224;27.976;2023-03-29T02:50:54;5.13;;;3.60;;
5965;SDS011;3009;43.224;27.976;2023-03-29T02:53:28;3.83;;;3.30;;
5965;SDS011;3009;43.224;27.976;2023-03-29T02:56:01;8.50;;;4.17;;
5965;SDS011;3009;43.224;27.976;2023-03-29T02:58:30;4.50;;;3.47;;
5965;SDS011;3009;43.224;27.976;2023-03-29T03:01:00;3.70;;;3.30;;
5965;SDS011;3009;43.224;27.976;2023-03-29T03:03:31;4.90;;;3.50;;
5965;SDS011;3009;43.224;27.976;2023-03-29T03:06:01;6.00;;;3.40;;
5965;SDS011;3009;43.224;27.976;2023-03-29T03:08:31;4.07;;;3.40;;
5965;SDS011;3009;43.224;27.976;2023-03-29T03:10:59;4.27;;;3.87;;
5965;SDS011;3009;43.224;27.976;2023-03-29T03:13:28;4.80;;;3.90;;
5965;SDS011;3009;43.224;27.976;2023-03-29T03:15:57;3.33;;;3.13;;
5965;SDS011;3009;43.224;27.976;2023-03-29T03:18:28;4.23;;;3.80;;
5965;SDS011;3009;43.224;27.976;2023-03-29T03:20:56;5.40;;;3.60;;
5965;SDS011;3009;43.224;27.976;2023-03-29T03:23:27;3.67;;;3.37;;
5965;SDS011;3009;43.224;27.976;2023-03-29T03:25:55;5.23;;;3.60;;
5965;SDS011;3009;43.224;27.976;2023-03-29T03:28:24;4.43;;;4.03;;
5965;SDS011;3009;43.224;27.976;2023-03-29T03:30:53;4.63;;;4.10;;
5965;SDS011;3009;43.224;27.976;2023-03-29T03:33:21;3.87;;;3.57;;
5965;SDS011;3009;43.224;27.976;2023-03-29T03:35:53;4.40;;;4.00;;
5965;SDS011;3009;43.224;27.976;2023-03-29T03:38:28;3.77;;;3.40;;
5965;SDS011;3009;43.224;27.976;2023-03-29T03:40:56;4.80;;;4.37;;
5965;SDS011;3009;43.224;27.976;2023-03-29T03:43:26;4.40;;;4.00;;
5965;SDS011;3009;43.224;27.976;2023-03-29T03:45:55;4.90;;;3.67;;
5965;SDS011;3009;43.224;27.976;2023-03-29T03:48:24;3.57;;;3.37;;
5965;SDS011;3009;43.224;27.976;2023-03-29T03:50:55;6.13;;;3.57;;
5965;SDS011;3009;43.224;27.976;2023-03-29T03:53:26;4.87;;;4.37;;
5965;SDS011;3009;43.224;27.976;2023-03-29T03:55:54;5.80;;;4.47;;
5965;SDS011;3009;43.224;27.976;2023-03-29T03:58:23;8.80;;;4.90;;
5965;SDS011;3009;43.224;27.976;2023-03-29T04:00:52;7.87;;;4.97;;
5965;SDS011;3009;43.224;27.976;2023-03-29T04:03:21;6.33;;;3.87;;
5965;SDS011;3009;43.224;27.976;2023-03-29T04:05:49;8.10;;;5.17;;
5965;SDS011;3009;43.224;27.976;2023-03-29T04:08:19;5.77;;;4.17;;
5965;SDS011;3009;43.224;27.976;2023-03-29T04:10:50;7.03;;;4.53;;
5965;SDS011;3009;43.224;27.976;2023-03-29T04:13:19;9.43;;;5.77;;
5965;SDS011;3009;43.224;27.976;2023-03-29T04:15:48;5.30;;;4.00;;
5965;SDS011;3009;43.224;27.976;2023-03-29T04:18:19;7.77;;;4.13;;
5965;SDS011;3009;43.224;27.976;2023-03-29T04:20:48;4.60;;;4.20;;
5965;SDS011;3009;43.224;27.976;2023-03-29T04:23:18;4.90;;;4.10;;
5965;SDS011;3009;43.224;27.976;2023-03-29T04:25:47;3.90;;;3.50;;
5965;SDS011;3009;43.224;27.976;2023-03-29T04:28:16;4.67;;;4.27;;
5965;SDS011;3009;43.224;27.976;2023-03-29T04:30:44;4.53;;;4.07;;
5965;SDS011;3009;43.224;27.976;2023-03-29T04:33:13;5.07;;;4.43;;
5965;SDS011;3009;43.224;27.976;2023-03-29T04:35:42;6.50;;;4.13;;
5965;SDS011;3009;43.224;27.976;2023-03-29T04:38:11;6.53;;;4.67;;
5965;SDS011;3009;43.224;27.976;2023-03-29T04:40:41;8.73;;;4.87;;
5965;SDS011;3009;43.224;27.976;2023-03-29T04:43:09;7.13;;;5.07;;
5965;SDS011;3009;43.224;27.976;2023-03-29T04:45:38;8.07;;;4.90;;
5965;SDS011;3009;43.224;27.976;2023-03-29T04:48:06;5.87;;;5.33;;
5965;SDS011;3009;43.224;27.976;2023-03-29T04:50:34;5.77;;;5.17;;
5965;SDS011;3009;43.224;27.976;2023-03-29T04:53:03;5.40;;;4.83;;
5965;SDS011;3009;43.224;27.976;2023-03-29T04:55:32;8.87;;;6.17;;
5965;SDS011;3009;43.224;27.976;2023-03-29T04:58:02;7.33;;;5.63;;
5965;SDS011;3009;43.224;27.976;2023-03-29T05:00:31;6.33;;;5.73;;
5965;SDS011;3009;43.224;27.976;2023-03-29T05:02:59;7.20;;;6.50;;
5965;SDS011;3009;43.224;27.976;2023-03-29T05:05:27;6.80;;;6.00;;
5965;SDS011;3009;43.224;27.976;2023-03-29T05:07:56;7.13;;;6.37;;
5965;SDS011;3009;43.224;27.976;2023-03-29T05:10:24;6.20;;;5.60;;
5965;SDS011;3009;43.224;27.976;2023-03-29T05:12:53;6.73;;;5.97;;
5965;SDS011;3009;43.224;27.976;2023-03-29T05:15:24;8.20;;;5.60;;
5965;SDS011;3009;43.224;27.976;2023-03-29T05:17:52;7.90;;;6.47;;
5965;SDS011;3009;43.224;27.976;2023-03-29T05:20:21;12.37;;;6.67;;
5965;SDS011;3009;43.224;27.976;2023-03-29T05:22:50;8.63;;;6.17;;
5965;SDS011;3009;43.224;27.976;2023-03-29T05:25:19;7.70;;;6.80;;
5965;SDS011;3009;43.224;27.976;2023-03-29T05:27:48;5.43;;;5.00;;
5965;SDS011;3009;43.224;27.976;2023-03-29T05:30:16;6.47;;;5.43;;
5965;SDS011;3009;43.224;27.976;2023-03-29T05:32:47;10.73;;;5.90;;
5965;SDS011;3009;43.224;27.976;2023-03-29T05:35:16;15.63;;;6.00;;
5965;SDS011;3009;43.224;27.976;2023-03-29T05:37:44;8.80;;;6.23;;
5965;SDS011;3009;43.224;27.976;2023-03-29T05:40:13;14.73;;;6.90;;
5965;SDS011;3009;43.224;27.976;2023-03-29T05:42:42;9.63;;;7.53;;
5965;SDS011;3009;43.224;27.976;2023-03-29T05:45:10;7.53;;;5.70;;
5965;SDS011;3009;43.224;27.976;2023-03-29T05:47:38;6.33;;;5.10;;
5965;SDS011;3009;43.224;27.976;2023-03-29T05:50:09;5.40;;;4.80;;
5965;SDS011;3009;43.224;27.976;2023-03-29T05:52:38;5.60;;;5.10;;
5965;SDS011;3009;43.224;27.976;2023-03-29T05:55:06;6.23;;;5.73;;
5965;SDS011;3009;43.224;27.976;2023-03-29T05:57:35;4.90;;;4.50;;
5965;SDS011;3009;43.224;27.976;2023-03-29T06:00:06;5.17;;;4.77;;
5965;SDS011;3009;43.224;27.976;2023-03-29T06:02:45;5.07;;;4.67;;
5965;SDS011;3009;43.224;27.976;2023-03-29T06:05:15;6.47;;;5.00;;
5965;SDS011;3009;43.224;27.976;2023-03-29T06:07:43;4.63;;;4.33;;
5965;SDS011;3009;43.224;27.976;2023-03-29T06:10:14;5.20;;;4.70;;
5965;SDS011;3009;43.224;27.976;2023-03-29T06:12:43;4.00;;;3.70;;
5965;SDS011;3009;43.224;27.976;2023-03-29T06:15:12;4.17;;;3.80;;
5965;SDS011;3009;43.224;27.976;2023-03-29T06:17:41;6.60;;;5.00;;
5965;SDS011;3009;43.224;27.976;2023-03-29T06:20:11;4.93;;;4.53;;
5965;SDS011;3009;43.224;27.976;2023-03-29T06:22:41;5.27;;;4.70;;
5965;SDS011;3009;43.224;27.976;2023-03-29T06:25:12;10.90;;;4.47;;
5965;SDS011;3009;43.224;27.976;2023-03-29T06:27:41;5.83;;;4.50;;
5965;SDS011;3009;43.224;27.976;2023-03-29T06:30:09;4.97;;;4.57;;
5965;SDS011;3009;43.224;27.976;2023-03-29T06:32:40;8.73;;;5.17;;
5965;SDS011;3009;43.224;27.976;2023-03-29T06:35:08;6.27;;;4.17;;
5965;SDS011;3009;43.224;27.976;2023-03-29T06:37:37;9.97;;;4.90;;
5965;SDS011;3009;43.224;27.976;2023-03-29T06:40:11;4.70;;;3.63;;
5965;SDS011;3009;43.224;27.976;2023-03-29T06:42:40;5.50;;;4.50;;
5965;SDS011;3009;43.224;27.976;2023-03-29T06:45:09;4.37;;;3.97;;
5965;SDS011;3009;43.224;27.976;2023-03-29T06:47:37;4.80;;;4.40;;
5965;SDS011;3009;43.224;27.976;2023-03-29T06:50:06;8.63;;;4.93;;
5965;SDS011;3009;43.224;27.976;2023-03-29T06:52:37;4.60;;;4.20;;
5965;SDS011;3009;43.224;27.976;2023-03-29T06:55:06;4.50;;;4.10;;
5965;SDS011;3009;43.224;27.976;2023-03-29T06:57:36;5.13;;;4.70;;
5965;SDS011;3009;43.224;27.976;2023-03-29T07:00:05;4.03;;;3.80;;
5965;SDS011;3009;43.224;27.976;2023-03-29T07:02:42;4.53;;;4.13;;
5965;SDS011;3009;43.224;27.976;2023-03-29T07:05:11;5.83;;;4.33;;
5965;SDS011;3009;43.224;27.976;2023-03-29T07:07:41;4.53;;;4.23;;
5965;SDS011;3009;43.224;27.976;2023-03-29T07:10:23;5.53;;;4.10;;
5965;SDS011;3009;43.224;27.976;2023-03-29T07:12:55;3.90;;;3.70;;
5965;SDS011;3009;43.224;27.976;2023-03-29T07:15:23;4.40;;;4.00;;
5965;SDS011;3009;43.224;27.976;2023-03-29T07:17:53;4.30;;;3.90;;
5965;SDS011;3009;43.224;27.976;2023-03-29T07:20:23;5.73;;;4.67;;
5965;SDS011;3009;43.224;27.976;2023-03-29T07:22:52;6.27;;;5.20;;
5965;SDS011;3009;43.224;27.976;2023-03-29T07:25:22;5.50;;;4.67;;
5965;SDS011;3009;43.224;27.976;2023-03-29T07:27:51;4.37;;;3.97;;
5965;SDS011;3009;43.224;27.976;2023-03-29T07:30:22;4.43;;;4.13;;
5965;SDS011;3009;43.224;27.976;2023-03-29T07:32:57;10.10;;;5.10;;
5965;SDS011;3009;43.224;27.976;2023-03-29T07:35:26;5.93;;;4.10;;
5965;SDS011;3009;43.224;27.976;2023-03-29T07:37:57;4.90;;;4.50;;
5965;SDS011;3009;43.224;27.976;2023-03-29T07:40:25;3.73;;;3.43;;
5965;SDS011;3009;43.224;27.976;2023-03-29T07:42:54;4.40;;;4.10;;
5965;SDS011;3009;43.224;27.976;2023-03-29T07:45:26;4.83;;;3.93;;
5965;SDS011;3009;43.224;27.976;2023-03-29T07:47:57;4.87;;;4.40;;
5965;SDS011;3009;43.224;27.976;2023-03-29T07:50:26;4.90;;;4.50;;
5965;SDS011;3009;43.224;27.976;2023-03-29T07:52:58;5.20;;;4.23;;
5965;SDS011;3009;43.224;27.976;2023-03-29T07:55:28;7.70;;;4.87;;
5965;SDS011;3009;43.224;27.976;2023-03-29T07:57:57;7.50;;;4.67;;
5965;SDS011;3009;43.224;27.976;2023-03-29T08:00:27;4.50;;;4.10;;
5965;SDS011;3009;43.224;27.976;2023-03-29T08:02:55;5.40;;;4.10;;
5965;SDS011;3009;43.224;27.976;2023-03-29T08:05:24;9.53;;;3.70;;
5965;SDS011;3009;43.224;27.976;2023-03-29T08:08:05;5.63;;;4.97;;
5965;SDS011;3009;43.224;27.976;2023-03-29T08:10:35;4.43;;;4.03;;
5965;SDS011;3009;43.224;27.976;2023-03-29T08:13:05;4.70;;;4.30;;
5965;SDS011;3009;43.224;27.976;2023-03-29T08:15:36;5.00;;;4.00;;
5965;SDS011;3009;43.224;27.976;2023-03-29T08:18:07;6.20;;;3.80;;
5965;SDS011;3009;43.224;27.976;2023-03-29T08:20:36;7.93;;;5.00;;
5965;SDS011;3009;43.224;27.976;2023-03-29T08:23:04;4.73;;;4.33;;
5965;SDS011;3009;43.224;27.976;2023-03-29T08:25:33;4.20;;;3.80;;
5965;SDS011;3009;43.224;27.976;2023-03-29T08:28:02;5.17;;;4.53;;
5965;SDS011;3009;43.224;27.976;2023-03-29T08:30:30;4.50;;;4.20;;
5965;SDS011;3009;43.224;27.976;2023-03-29T08:33:00;4.07;;;3.80;;
5965;SDS011;3009;43.224;27.976;2023-03-29T08:35:29;4.83;;;4.30;;
5965;SDS011;3009;43.224;27.976;2023-03-29T08:37:57;5.60;;;4.37;;
5965;SDS011;3009;43.224;27.976;2023-03-29T08:40:26;4.13;;;3.83;;
5965;SDS011;3009;43.224;27.976;2023-03-29T08:43:10;5.60;;;5.00;;
5965;SDS011;3009;43.224;27.976;2023-03-29T08:45:49;6.50;;;4.87;;
5965;SDS011;3009;43.224;27.976;2023-03-29T08:48:30;3.87;;;3.47;;
5965;SDS011;3009;43.224;27.976;2023-03-29T08:51:02;6.83;;;5.60;;
5965;SDS011;3009;43.224;27.976;2023-03-29T08:53:37;6.27;;;4.40;;
5965;SDS011;3009;43.224;27.976;2023-03-29T08:56:11;4.43;;;4.10;;
5965;SDS011;3009;43.224;27.976;2023-03-29T08:58:44;4.23;;;3.83;;
5965;SDS011;3009;43.224;27.976;2023-03-29T09:01:13;4.97;;;3.80;;
5965;SDS011;3009;43.224;27.976;2023-03-29T09:03:44;3.60;;;3.40;;
5965;SDS011;3009;43.224;27.976;2023-03-29T09:06:16;3.83;;;3.53;;
5965;SDS011;3009;43.224;27.976;2023-03-29T09:08:49;5.20;;;3.43;;
5965;SDS011;3009;43.224;27.976;2023-03-29T09:14:19;3.70;;;3.40;;
5965;SDS011;3009;43.224;27.976;2023-03-29T09:16:58;4.77;;;4.00;;
5965;SDS011;3009;43.224;27.976;2023-03-29T09:19:36;4.17;;;3.87;;
5965;SDS011;3009;43.224;27.976;2023-03-29T09:22:11;4.03;;;3.80;;
5965;SDS011;3009;43.224;27.976;2023-03-29T09:24:48;5.70;;;4.40;;
5965;SDS011;3009;43.224;27.976;2023-03-29T09:27:28;4.50;;;4.10;;
5965;SDS011;3009;43.224;27.976;2023-03-29T09:30:02;4.70;;;4.20;;
5965;SDS011;3009;43.224;27.976;2023-03-29T09:32:41;4.03;;;3.70;;
5965;SDS011;3009;43.224;27.976;2023-03-29T09:35:16;4.93;;;4.53;;
5965;SDS011;3009;43.224;27.976;2023-03-29T09:37:49;3.90;;;3.60;;
5965;SDS011;3009;43.224;27.976;2023-03-29T09:40:20;4.80;;;4.40;;
5965;SDS011;3009;43.224;27.976;2023-03-29T09:42:51;4.13;;;3.80;;
5965;SDS011;3009;43.224;27.976;2023-03-29T09:45:21;3.90;;;3.60;;
5965;SDS011;3009;43.224;27.976;2023-03-29T09:47:51;3.80;;;3.60;;
5965;SDS011;3009;43.224;27.976;2023-03-29T09:50:25;5.13;;;3.90;;
5965;SDS011;3009;43.224;27.976;2023-03-29T09:52:58;6.13;;;4.70;;
5965;SDS011;3009;43.224;27.976;2023-03-29T09:55:28;4.60;;;4.17;;
5965;SDS011;3009;43.224;27.976;2023-03-29T09:58:00;4.97;;;4.40;;
5965;SDS011;3009;43.224;27.976;2023-03-29T10:00:32;5.37;;;4.63;;
5965;SDS011;3009;43.224;27.976;2023-03-29T10:03:02;4.53;;;4.13;;
5965;SDS011;3009;43.224;27.976;2023-03-29T10:05:32;8.23;;;4.40;;
5965;SDS011;3009;43.224;27.976;2023-03-29T10:08:10;4.80;;;4.40;;
5965;SDS011;3009;43.224;27.976;2023-03-29T10:10:45;4.50;;;4.10;;
5965;SDS011;3009;43.224;27.976;2023-03-29T10:13:16;4.30;;;4.00;;
5965;SDS011;3009;43.224;27.976;2023-03-29T10:15:56;4.93;;;4.53;;
5965;SDS011;3009;43.224;27.976;2023-03-29T10:18:28;10.10;;;5.60;;
5965;SDS011;3009;43.224;27.976;2023-03-29T10:20:59;4.63;;;4.20;;
5965;SDS011;3009;43.224;27.976;2023-03-29T10:23:30;4.20;;;3.90;;
5965;SDS011;3009;43.224;27.976;2023-03-29T10:26:00;4.67;;;4.07;;
5965;SDS011;3009;43.224;27.976;2023-03-29T10:28:31;4.00;;;3.70;;
5965;SDS011;3009;43.224;27.976;2023-03-29T10:31:01;3.90;;;3.60;;
5965;SDS011;3009;43.224;27.976;2023-03-29T10:33:34;4.17;;;3.77;;
5965;SDS011;3009;43.224;27.976;2023-03-29T10:36:05;3.80;;;3.47;;
5965;SDS011;3009;43.224;27.976;2023-03-29T10:38:35;3.30;;;3.10;;
5965;SDS011;3009;43.224;27.976;2023-03-29T10:41:05;3.20;;;2.90;;
5965;SDS011;3009;43.224;27.976;2023-03-29T10:43:38;3.90;;;3.50;;
5965;SDS011;3009;43.224;27.976;2023-03-29T10:46:11;3.60;;;3.30;;
5965;SDS011;3009;43.224;27.976;2023-03-29T10:48:48;5.60;;;3.50;;
5965;SDS011;3009;43.224;27.976;2023-03-29T10:51:19;4.03;;;3.63;;
5965;SDS011;3009;43.224;27.976;2023-03-29T10:53:48;3.23;;;3.03;;
5965;SDS011;3009;43.224;27.976;2023-03-29T10:56:21;3.03;;;2.93;;
5965;SDS011;3009;43.224;27.976;2023-03-29T10:59:06;4.60;;;3.80;;
5965;SDS011;3009;43.224;27.976;2023-03-29T11:01:45;4.00;;;3.80;;
5965;SDS011;3009;43.224;27.976;2023-03-29T11:04:25;7.00;;;3.67;;
5965;SDS011;3009;43.224;27.976;2023-03-29T11:07:08;4.10;;;3.40;;
5965;SDS011;3009;43.224;27.976;2023-03-29T11:09:50;3.77;;;3.47;;
5965;SDS011;3009;43.224;27.976;2023-03-29T11:12:29;3.57;;;3.13;;
5965;SDS011;3009;43.224;27.976;2023-03-29T11:15:15;3.73;;;3.47;;
5965;SDS011;3009;43.224;27.976;2023-03-29T11:18:09;3.07;;;2.77;;
5965;SDS011;3009;43.224;27.976;2023-03-29T11:20:53;4.40;;;3.37;;
5965;SDS011;3009;43.224;27.976;2023-03-29T11:23:39;3.10;;;2.90;;
5965;SDS011;3009;43.224;27.976;2023-03-29T11:26:17;3.40;;;3.20;;
5965;SDS011;3009;43.224;27.976;2023-03-29T11:28:51;3.40;;;3.10;;
5965;SDS011;3009;43.224;27.976;2023-03-29T11:31:26;2.47;;;2.27;;
5965;SDS011;3009;43.224;27.976;2023-03-29T11:34:12;2.50;;;2.40;;
5965;SDS011;3009;43.224;27.976;2023-03-29T11:36:50;2.50;;;2.40;;
5965;SDS011;3009;43.224;27.976;2023-03-29T11:39:28;5.30;;;2.97;;
5965;SDS011;3009;43.224;27.976;2023-03-29T11:42:06;2.70;;;2.50;;
5965;SDS011;3009;43.224;27.976;2023-03-29T11:44:39;3.00;;;2.80;;
5965;SDS011;3009;43.224;27.976;2023-03-29T11:47:11;3.00;;;2.80;;
5965;SDS011;3009;43.224;27.976;2023-03-29T11:49:43;2.93;;;2.73;;
5965;SDS011;3009;43.224;27.976;2023-03-29T11:52:17;2.77;;;2.67;;
5965;SDS011;3009;43.224;27.976;2023-03-29T11:54:52;3.03;;;2.30;;
5965;SDS011;3009;43.224;27.976;2023-03-29T11:57:25;2.20;;;2.10;;
5965;SDS011;3009;43.224;27.976;2023-03-29T11:59:59;3.13;;;2.30;;
5965;SDS011;3009;43.224;27.976;2023-03-29T12:02:32;3.03;;;2.83;;
5965;SDS011;3009;43.224;27.976;2023-03-29T12:05:05;2.90;;;2.70;;
5965;SDS011;3009;43.224;27.976;2023-03-29T12:07:41;3.30;;;2.87;;
5965;SDS011;3009;43.224;27.976;2023-03-29T12:10:17;2.97;;;2.60;;
5965;SDS011;3009;43.224;27.976;2023-03-29T12:12:48;3.33;;;3.13;;
5965;SDS011;3009;43.224;27.976;2023-03-29T12:15:25;4.27;;;3.17;;
5965;SDS011;3009;43.224;27.976;2023-03-29T12:17:59;2.97;;;2.73;;
5965;SDS011;3009;43.224;27.976;2023-03-29T12:20:32;3.07;;;2.87;;
5965;SDS011;3009;43.224;27.976;2023-03-29T12:23:03;3.50;;;3.30;;
5965;SDS011;3009;43.224;27.976;2023-03-29T12:25:37;4.10;;;3.77;;
5965;SDS011;3009;43.224;27.976;2023-03-29T12:28:16;3.43;;;2.93;;
5965;SDS011;3009;43.224;27.976;2023-03-29T12:30:59;3.90;;;3.60;;
5965;SDS011;3009;43.224;27.976;2023-03-29T12:39:34;3.40;;;3.20;;
5965;SDS011;3009;43.224;27.976;2023-03-29T12:42:06;3.67;;;3.43;;
5965;SDS011;3009;43.224;27.976;2023-03-29T12:44:42;4.20;;;3.90;;
5965;SDS011;3009;43.224;27.976;2023-03-29T12:47:16;3.40;;;3.20;;
5965;SDS011;3009;43.224;27.976;2023-03-29T12:49:48;3.43;;;3.20;;
5965;SDS011;3009;43.224;27.976;2023-03-29T12:52:23;4.83;;;3.80;;
5965;SDS011;3009;43.224;27.976;2023-03-29T12:54:55;2.90;;;2.70;;
5965;SDS011;3009;43.224;27.976;2023-03-29T12:57:27;2.83;;;2.73;;
5965;SDS011;3009;43.224;27.976;2023-03-29T13:00:09;2.87;;;2.67;;
5965;SDS011;3009;43.224;27.976;2023-03-29T13:02:39;3.33;;;3.10;;
5965;SDS011;3009;43.224;27.976;2023-03-29T13:05:27;3.37;;;3.17;;
5965;SDS011;3009;43.224;27.976;2023-03-29T13:07:58;4.57;;;4.17;;
5965;SDS011;3009;43.224;27.976;2023-03-29T13:10:38;4.70;;;3.27;;
5965;SDS011;3009;43.224;27.976;2023-03-29T13:13:13;3.70;;;3.40;;
5965;SDS011;3009;43.224;27.976;2023-03-29T13:15:45;3.73;;;3.33;;
5965;SDS011;3009;43.224;27.976;2023-03-29T13:18:24;4.40;;;4.00;;
5965;SDS011;3009;43.224;27.976;2023-03-29T13:21:04;5.50;;;5.00;;
5965;SDS011;3009;43.224;27.976;2023-03-29T13:23:44;5.07;;;4.57;;
5965;SDS011;3009;43.224;27.976;2023-03-29T13:26:24;4.30;;;3.90;;
5965;SDS011;3009;43.224;27.976;2023-03-29T13:29:13;3.73;;;3.43;;
5965;SDS011;3009;43.224;27.976;2023-03-29T13:31:53;3.43;;;3.13;;
5965;SDS011;3009;43.224;27.976;2023-03-29T13:34:31;3.97;;;3.67;;
5965;SDS011;3009;43.224;27.976;2023-03-29T13:37:12;4.20;;;3.83;;
5965;SDS011;3009;43.224;27.976;2023-03-29T13:39:54;3.90;;;3.40;;
5965;SDS011;3009;43.224;27.976;2023-03-29T13:42:23;5.47;;;3.70;;
5965;SDS011;3009;43.224;27.976;2023-03-29T13:45:11;3.80;;;3.50;;
5965;SDS011;3009;43.224;27.976;2023-03-29T13:47:43;3.80;;;3.50;;
5965;SDS011;3009;43.224;27.976;2023-03-29T13:50:32;3.77;;;3.40;;
5965;SDS011;3009;43.224;27.976;2023-03-29T13:53:05;3.67;;;3.40;;
5965;SDS011;3009;43.224;27.976;2023-03-29T13:55:42;3.57;;;3.30;;
5965;SDS011;3009;43.224;27.976;2023-03-29T13:58:18;2.90;;;2.80;;
5965;SDS011;3009;43.224;27.976;2023-03-29T14:01:00;3.80;;;3.50;;
5965;SDS011;3009;43.224;27.976;2023-03-29T14:03:36;3.90;;;3.70;;
5965;SDS011;3009;43.224;27.976;2023-03-29T14:06:10;3.50;;;3.30;;
5965;SDS011;3009;43.224;27.976;2023-03-29T14:08:42;3.87;;;3.47;;
5965;SDS011;3009;43.224;27.976;2023-03-29T14:11:15;4.13;;;3.73;;
5965;SDS011;3009;43.224;27.976;2023-03-29T14:13:50;4.13;;;3.73;;
5965;SDS011;3009;43.224;27.976;2023-03-29T14:16:21;3.53;;;3.33;;
5965;SDS011;3009;43.224;27.976;2023-03-29T14:18:56;3.10;;;2.93;;
5965;SDS011;3009;43.224;27.976;2023-03-29T14:21:25;3.77;;;3.47;;
5965;SDS011;3009;43.224;27.976;2023-03-29T14:23:54;3.57;;;3.37;;
5965;SDS011;3009;43.224;27.976;2023-03-29T14:26:28;5.50;;;4.07;;
5965;SDS011;3009;43.224;27.976;2023-03-29T14:28:59;5.07;;;3.80;;
5965;SDS011;3009;43.224;27.976;2023-03-29T14:31:30;4.63;;;4.13;;
5965;SDS011;3009;43.224;27.976;2023-03-29T14:34:00;5.37;;;4.20;;
5965;SDS011;3009;43.224;27.976;2023-03-29T14:36:30;4.97;;;4.47;;
5965;SDS011;3009;43.224;27.976;2023-03-29T14:39:02;5.43;;;4.90;;
5965;SDS011;3009;43.224;27.976;2023-03-29T14:41:33;7.47;;;5.53;;
5965;SDS011;3009;43.224;27.976;2023-03-29T14:44:03;5.50;;;5.00;;
5965;SDS011;3009;43.224;27.976;2023-03-29T14:46:34;6.60;;;5.60;;
5965;SDS011;3009;43.224;27.976;2023-03-29T14:49:03;8.57;;;5.00;;
5965;SDS011;3009;43.224;27.976;2023-03-29T14:51:32;15.60;;;6.00;;
5965;SDS011;3009;43.224;27.976;2023-03-29T14:54:02;8.87;;;5.87;;
5965;SDS011;3009;43.224;27.976;2023-03-29T14:56:32;18.30;;;6.27;;
5965;SDS011;3009;43.224;27.976;2023-03-29T14:59:02;7.00;;;4.33;;
5965;SDS011;3009;43.224;27.976;2023-03-29T15:01:31;5.43;;;4.93;;
5965;SDS011;3009;43.224;27.976;2023-03-29T15:04:03;7.40;;;5.30;;
5965;SDS011;3009;43.224;27.976;2023-03-29T15:06:35;16.30;;;6.07;;
5965;SDS011;3009;43.224;27.976;2023-03-29T15:09:07;9.27;;;6.33;;
5965;SDS011;3009;43.224;27.976;2023-03-29T15:11:48;6.40;;;5.30;;
5965;SDS011;3009;43.224;27.976;2023-03-29T15:14:19;14.63;;;5.60;;
5965;SDS011;3009;43.224;27.976;2023-03-29T15:16:49;7.03;;;5.20;;
5965;SDS011;3009;43.224;27.976;2023-03-29T15:19:21;5.50;;;4.97;;
5965;SDS011;3009;43.224;27.976;2023-03-29T15:21:52;9.10;;;5.00;;
5965;SDS011;3009;43.224;27.976;2023-03-29T15:24:21;6.63;;;4.60;;
5965;SDS011;3009;43.224;27.976;2023-03-29T15:26:58;4.90;;;4.17;;
5965;SDS011;3009;43.224;27.976;2023-03-29T15:29:33;5.57;;;4.63;;
5965;SDS011;3009;43.224;27.976;2023-03-29T15:32:05;6.77;;;4.50;;
5965;SDS011;3009;43.224;27.976;2023-03-29T15:34:35;5.10;;;4.70;;
5965;SDS011;3009;43.224;27.976;2023-03-29T15:37:04;8.50;;;4.33;;
5965;SDS011;3009;43.224;27.976;2023-03-29T15:39:33;5.60;;;4.73;;